createdAt,value
2018-06-04T00:00:25.033Z,1002.6
2018-06-04T00:01:26.429Z,1002.7
2018-06-04T00:02:27.839Z,1002.6
2018-06-04T00:03:29.233Z,1002.7
2018-06-04T00:04:30.626Z,1002.6
2018-06-04T00:05:32.020Z,1002.6
2018-06-04T00:06:33.414Z,1002.6
2018-06-04T00:07:34.811Z,1002.7
2018-06-04T00:08:36.201Z,1002.6
2018-06-04T00:09:37.593Z,1002.6
2018-06-04T00:10:38.987Z,1002.6
2018-06-04T00:11:40.382Z,1002.6
2018-06-04T00:12:41.773Z,1002.6
2018-06-04T00:13:43.167Z,1002.6
2018-06-04T00:14:44.561Z,1002.6
2018-06-04T00:15:45.960Z,1002.6
2018-06-04T00:16:47.400Z,1002.6
2018-06-04T00:17:48.796Z,1002.5
2018-06-04T00:18:50.184Z,1002.5
2018-06-04T00:19:51.573Z,1002.5
2018-06-04T00:20:52.966Z,1002.5
2018-06-04T00:21:54.359Z,1002.5
2018-06-04T00:22:55.752Z,1002.5
2018-06-04T00:23:57.146Z,1002.5
2018-06-04T00:24:58.542Z,1002.5
2018-06-04T00:25:59.959Z,1002.5
2018-06-04T00:27:01.350Z,1002.5
2018-06-04T00:28:02.743Z,1002.5
2018-06-04T00:29:04.137Z,1002.5
2018-06-04T00:30:05.531Z,1002.5
2018-06-04T00:31:06.929Z,1002.5
2018-06-04T00:32:08.321Z,1002.5
2018-06-04T00:33:09.716Z,1002.5
2018-06-04T00:34:11.110Z,1002.5
2018-06-04T00:35:12.500Z,1002.5
2018-06-04T00:36:13.898Z,1002.5
2018-06-04T00:37:15.292Z,1002.5
2018-06-04T00:38:16.690Z,1002.5
2018-06-04T00:39:18.152Z,1002.5
2018-06-04T00:40:19.561Z,1002.4
2018-06-04T00:41:20.954Z,1002.4
2018-06-04T00:42:22.348Z,1002.4
2018-06-04T00:43:23.741Z,1002.4
2018-06-04T00:44:25.135Z,1002.4
2018-06-04T00:45:26.530Z,1002.4
2018-06-04T00:46:27.982Z,1002.4
2018-06-04T00:47:29.374Z,1002.4
2018-06-04T00:48:30.781Z,1002.4
2018-06-04T00:49:32.168Z,1002.4
2018-06-04T00:50:33.557Z,1002.4
2018-06-04T00:51:34.946Z,1002.4
2018-06-04T00:52:36.332Z,1002.4
2018-06-04T00:53:37.723Z,1002.4
2018-06-04T00:54:39.114Z,1002.4
2018-06-04T00:55:40.508Z,1002.4
2018-06-04T00:56:41.900Z,1002.3
2018-06-04T00:57:43.295Z,1002.4
2018-06-04T00:58:44.690Z,1002.3
2018-06-04T00:59:46.081Z,1002.3
2018-06-04T01:00:47.485Z,1002.3
2018-06-04T01:01:48.889Z,1002.3
2018-06-04T01:02:50.265Z,1002.3
2018-06-04T01:03:51.660Z,1002.3
2018-06-04T01:04:53.056Z,1002.2
2018-06-04T01:05:54.451Z,1002.3
2018-06-04T01:06:55.846Z,1002.2
2018-06-04T01:07:57.241Z,1002.2
2018-06-04T01:08:58.632Z,1002.2
2018-06-04T01:10:00.026Z,1002.1
2018-06-04T01:11:01.417Z,1002.2
2018-06-04T01:12:02.817Z,1002.1
2018-06-04T01:13:04.212Z,1002.1
2018-06-04T01:14:05.601Z,1002.1
2018-06-04T01:15:06.999Z,1002.1
2018-06-04T01:16:08.394Z,1002.1
2018-06-04T01:17:09.781Z,1002.1
2018-06-04T01:18:11.185Z,1002.1
2018-06-04T01:19:12.572Z,1002.1
2018-06-04T01:20:13.963Z,1002.1
2018-06-04T01:21:15.384Z,1002.0
2018-06-04T01:22:16.779Z,1002.0
2018-06-04T01:23:18.171Z,1002.0
2018-06-04T01:24:19.644Z,1002.0
2018-06-04T01:25:21.045Z,1002.0
2018-06-04T01:26:22.433Z,1001.9
2018-06-04T01:27:23.827Z,1002.0
2018-06-04T01:28:25.225Z,1002.0
2018-06-04T01:29:26.617Z,1002.0
2018-06-04T01:30:28.012Z,1001.9
2018-06-04T01:31:29.405Z,1001.9
2018-06-04T01:32:30.804Z,1001.9
2018-06-04T01:33:32.196Z,1002.0
2018-06-04T01:34:33.592Z,1002.0
2018-06-04T01:35:35.017Z,1002.0
2018-06-04T01:36:36.413Z,1001.9
2018-06-04T01:37:37.814Z,1001.9
2018-06-04T01:38:39.210Z,1001.9
2018-06-04T01:39:40.600Z,1001.9
2018-06-04T01:40:41.992Z,1001.9
2018-06-04T01:41:43.390Z,1001.9
2018-06-04T01:42:44.784Z,1001.9
2018-06-04T01:43:46.180Z,1001.9
2018-06-04T01:44:47.572Z,1001.9
2018-06-04T01:45:48.967Z,1001.9
2018-06-04T01:46:50.358Z,1001.9
2018-06-04T01:47:51.758Z,1001.9
2018-06-04T01:48:53.151Z,1001.9
2018-06-04T01:49:54.550Z,1001.9
2018-06-04T01:50:55.940Z,1001.9
2018-06-04T01:51:57.333Z,1001.8
2018-06-04T01:52:58.721Z,1001.8
2018-06-04T01:54:00.115Z,1001.8
2018-06-04T01:55:01.507Z,1001.8
2018-06-04T01:56:02.922Z,1001.8
2018-06-04T01:57:04.318Z,1001.8
2018-06-04T01:58:05.711Z,1001.8
2018-06-04T01:59:07.103Z,1001.8
2018-06-04T02:00:08.500Z,1001.8
2018-06-04T02:01:09.887Z,1001.8
2018-06-04T02:02:11.278Z,1001.8
2018-06-04T02:03:12.720Z,1001.8
2018-06-04T02:04:14.067Z,1001.8
2018-06-04T02:05:15.461Z,1001.8
2018-06-04T02:06:16.851Z,1001.9
2018-06-04T02:07:18.259Z,1001.9
2018-06-04T02:08:19.660Z,1001.8
2018-06-04T02:09:21.163Z,1001.8
2018-06-04T02:10:22.647Z,1001.8
2018-06-04T02:11:24.085Z,1001.8
2018-06-04T02:12:25.483Z,1001.8
2018-06-04T02:13:26.874Z,1001.8
2018-06-04T02:14:28.275Z,1001.8
2018-06-04T02:15:29.660Z,1001.8
2018-06-04T02:16:31.050Z,1001.8
2018-06-04T02:17:32.445Z,1001.8
2018-06-04T02:18:33.838Z,1001.8
2018-06-04T02:19:35.232Z,1001.7
2018-06-04T02:20:36.623Z,1001.7
2018-06-04T02:21:38.015Z,1001.8
2018-06-04T02:22:39.411Z,1001.8
2018-06-04T02:23:40.803Z,1001.7
2018-06-04T02:24:42.200Z,1001.7
2018-06-04T02:25:43.591Z,1001.7
2018-06-04T02:26:44.984Z,1001.7
2018-06-04T02:27:46.377Z,1001.7
2018-06-04T02:28:47.805Z,1001.7
2018-06-04T02:29:49.200Z,1001.7
2018-06-04T02:30:50.599Z,1001.7
2018-06-04T02:31:51.998Z,1001.8
2018-06-04T02:32:53.386Z,1001.7
2018-06-04T02:33:54.783Z,1001.7
2018-06-04T02:34:56.174Z,1001.7
2018-06-04T02:35:57.573Z,1001.7
2018-06-04T02:36:58.964Z,1001.7
2018-06-04T02:38:00.360Z,1001.7
2018-06-04T02:39:01.750Z,1001.7
2018-06-04T02:40:03.145Z,1001.7
2018-06-04T02:41:04.541Z,1001.7
2018-06-04T02:42:05.937Z,1001.7
2018-06-04T02:43:07.329Z,1001.7
2018-06-04T02:44:08.722Z,1001.7
2018-06-04T02:45:10.118Z,1001.7
2018-06-04T02:46:11.510Z,1001.7
2018-06-04T02:47:12.903Z,1001.7
2018-06-04T02:48:14.305Z,1001.7
2018-06-04T02:49:15.693Z,1001.7
2018-06-04T02:50:17.085Z,1001.7
2018-06-04T02:51:18.479Z,1001.7
2018-06-04T02:52:19.868Z,1001.7
2018-06-04T02:53:21.271Z,1001.7
2018-06-04T02:54:22.713Z,1001.8
2018-06-04T02:55:24.121Z,1001.7
2018-06-04T02:56:25.507Z,1001.7
2018-06-04T02:57:26.900Z,1001.8
2018-06-04T02:58:28.295Z,1001.8
2018-06-04T02:59:29.694Z,1001.7
2018-06-04T03:00:31.088Z,1001.8
2018-06-04T03:01:32.486Z,1001.7
2018-06-04T03:02:33.879Z,1001.8
2018-06-04T03:03:35.275Z,1001.7
2018-06-04T03:04:36.672Z,1001.7
2018-06-04T03:05:38.066Z,1001.8
2018-06-04T03:06:39.459Z,1001.8
2018-06-04T03:07:40.848Z,1001.8
2018-06-04T03:08:42.265Z,1001.7
2018-06-04T03:09:43.668Z,1001.8
2018-06-04T03:10:45.057Z,1001.8
2018-06-04T03:11:46.456Z,1001.7
2018-06-04T03:12:47.848Z,1001.8
2018-06-04T03:13:49.244Z,1001.7
2018-06-04T03:14:50.644Z,1001.7
2018-06-04T03:15:52.038Z,1001.7
2018-06-04T03:16:53.437Z,1001.7
2018-06-04T03:17:54.834Z,1001.7
2018-06-04T03:18:56.234Z,1001.8
2018-06-04T03:19:57.705Z,1001.8
2018-06-04T03:20:59.046Z,1001.7
2018-06-04T03:22:00.446Z,1001.7
2018-06-04T03:23:01.839Z,1001.7
2018-06-04T03:24:03.240Z,1001.7
2018-06-04T03:25:04.632Z,1001.7
2018-06-04T03:26:06.025Z,1001.7
2018-06-04T03:27:07.417Z,1001.7
2018-06-04T03:28:08.812Z,1001.7
2018-06-04T03:29:10.209Z,1001.7
2018-06-04T03:30:11.603Z,1001.7
2018-06-04T03:31:13.001Z,1001.7
2018-06-04T03:32:16.013Z,1001.7
2018-06-04T03:33:17.408Z,1001.7
2018-06-04T03:34:18.808Z,1001.7
2018-06-04T03:35:20.202Z,1001.7
2018-06-04T03:36:21.657Z,1001.7
2018-06-04T03:37:23.098Z,1001.7
2018-06-04T03:38:24.499Z,1001.7
2018-06-04T03:39:25.897Z,1001.7
2018-06-04T03:40:27.287Z,1001.7
2018-06-04T03:41:28.684Z,1001.7
2018-06-04T03:42:30.082Z,1001.7
2018-06-04T03:43:31.479Z,1001.7
2018-06-04T03:44:32.887Z,1001.7
2018-06-04T03:45:34.293Z,1001.6
2018-06-04T03:46:35.682Z,1001.7
2018-06-04T03:47:37.083Z,1001.7
2018-06-04T03:48:38.474Z,1001.7
2018-06-04T03:49:39.872Z,1001.6
2018-06-04T03:50:41.277Z,1001.6
2018-06-04T03:51:42.667Z,1001.6
2018-06-04T03:52:44.066Z,1001.6
2018-06-04T03:53:45.461Z,1001.6
2018-06-04T03:54:46.856Z,1001.6
2018-06-04T03:55:48.252Z,1001.6
2018-06-04T03:56:49.645Z,1001.6
2018-06-04T03:57:51.042Z,1001.6
2018-06-04T03:58:52.439Z,1001.6
2018-06-04T03:59:54.122Z,1001.6
2018-06-04T04:00:55.465Z,1001.6
2018-06-04T04:01:56.860Z,1001.6
2018-06-04T04:02:58.343Z,1001.6
2018-06-04T04:03:59.656Z,1001.5
2018-06-04T04:05:01.054Z,1001.5
2018-06-04T04:06:02.454Z,1001.6
2018-06-04T04:07:03.850Z,1001.6
2018-06-04T04:08:05.251Z,1001.6
2018-06-04T04:09:06.644Z,1001.5
2018-06-04T04:10:08.084Z,1001.6
2018-06-04T04:11:09.441Z,1001.6
2018-06-04T04:12:10.840Z,1001.6
2018-06-04T04:13:12.238Z,1001.6
2018-06-04T04:14:13.639Z,1001.6
2018-06-04T04:15:15.036Z,1001.5
2018-06-04T04:16:16.444Z,1001.6
2018-06-04T04:17:17.839Z,1001.6
2018-06-04T04:18:19.231Z,1001.6
2018-06-04T04:19:20.671Z,1001.6
2018-06-04T04:20:22.029Z,1001.6
2018-06-04T04:21:23.477Z,1001.6
2018-06-04T04:22:24.885Z,1001.6
2018-06-04T04:23:26.286Z,1001.6
2018-06-04T04:24:27.681Z,1001.6
2018-06-04T04:25:29.079Z,1001.6
2018-06-04T04:26:30.477Z,1001.6
2018-06-04T04:27:31.876Z,1001.6
2018-06-04T04:28:33.273Z,1001.5
2018-06-04T04:29:34.670Z,1001.5
2018-06-04T04:30:36.128Z,1001.5
2018-06-04T04:31:37.524Z,1001.5
2018-06-04T04:32:38.920Z,1001.5
2018-06-04T04:33:40.341Z,1001.5
2018-06-04T04:34:41.756Z,1001.5
2018-06-04T04:35:43.165Z,1001.5
2018-06-04T04:36:44.556Z,1001.5
2018-06-04T04:37:45.988Z,1001.5
2018-06-04T04:38:47.354Z,1001.5
2018-06-04T04:39:48.749Z,1001.5
2018-06-04T04:40:50.148Z,1001.6
2018-06-04T04:41:51.554Z,1001.6
2018-06-04T04:42:52.950Z,1001.5
2018-06-04T04:43:54.345Z,1001.5
2018-06-04T04:44:55.742Z,1001.5
2018-06-04T04:45:57.139Z,1001.5
2018-06-04T04:46:58.534Z,1001.5
2018-06-04T04:47:59.937Z,1001.6
2018-06-04T04:49:01.342Z,1001.5
2018-06-04T04:50:02.743Z,1001.5
2018-06-04T04:51:04.136Z,1001.5
2018-06-04T04:52:05.529Z,1001.5
2018-06-04T04:53:06.927Z,1001.5
2018-06-04T04:54:08.322Z,1001.5
2018-06-04T04:55:09.721Z,1001.5
2018-06-04T04:56:11.120Z,1001.5
2018-06-04T04:57:12.525Z,1001.5
2018-06-04T04:58:13.917Z,1001.5
2018-06-04T04:59:15.313Z,1001.5
2018-06-04T05:00:16.709Z,1001.5
2018-06-04T05:01:18.106Z,1001.5
2018-06-04T05:02:19.503Z,1001.5
2018-06-04T05:03:20.901Z,1001.5
2018-06-04T05:04:22.298Z,1001.5
2018-06-04T05:05:23.698Z,1001.5
2018-06-04T05:06:25.156Z,1001.5
2018-06-04T05:07:26.574Z,1001.5
2018-06-04T05:08:27.970Z,1001.5
2018-06-04T05:09:29.371Z,1001.6
2018-06-04T05:10:30.765Z,1001.6
2018-06-04T05:11:32.161Z,1001.6
2018-06-04T05:12:33.554Z,1001.6
2018-06-04T05:13:34.953Z,1001.6
2018-06-04T05:14:36.346Z,1001.6
2018-06-04T05:15:37.748Z,1001.6
2018-06-04T05:16:39.139Z,1001.6
2018-06-04T05:17:40.542Z,1001.6
2018-06-04T05:18:41.934Z,1001.6
2018-06-04T05:19:43.378Z,1001.6
2018-06-04T05:20:44.778Z,1001.6
2018-06-04T05:21:46.179Z,1001.6
2018-06-04T05:22:47.578Z,1001.5
2018-06-04T05:23:48.976Z,1001.5
2018-06-04T05:24:50.373Z,1001.5
2018-06-04T05:25:51.792Z,1001.5
2018-06-04T05:26:53.181Z,1001.5
2018-06-04T05:27:54.580Z,1001.5
2018-06-04T05:28:55.977Z,1001.5
2018-06-04T05:29:57.374Z,1001.5
2018-06-04T05:30:58.779Z,1001.5
2018-06-04T05:32:00.180Z,1001.5
2018-06-04T05:33:01.580Z,1001.6
2018-06-04T05:34:02.990Z,1001.6
2018-06-04T05:35:04.387Z,1001.5
2018-06-04T05:36:05.785Z,1001.6
2018-06-04T05:37:07.234Z,1001.6
2018-06-04T05:38:08.585Z,1001.6
2018-06-04T05:39:09.983Z,1001.6
2018-06-04T05:40:11.382Z,1001.6
2018-06-04T05:41:12.783Z,1001.6
2018-06-04T05:42:14.226Z,1001.6
2018-06-04T05:43:15.576Z,1001.6
2018-06-04T05:44:16.971Z,1001.5
2018-06-04T05:45:18.372Z,1001.6
2018-06-04T05:46:19.770Z,1001.5
2018-06-04T05:47:21.169Z,1001.5
2018-06-04T05:48:22.565Z,1001.5
2018-06-04T05:49:23.964Z,1001.5
2018-06-04T05:50:25.362Z,1001.5
2018-06-04T05:51:26.827Z,1001.5
2018-06-04T05:52:28.228Z,1001.4
2018-06-04T05:53:29.626Z,1001.4
2018-06-04T05:54:31.028Z,1001.4
2018-06-04T05:55:32.431Z,1001.4
2018-06-04T05:56:33.824Z,1001.4
2018-06-04T05:57:35.221Z,1001.4
2018-06-04T05:58:36.622Z,1001.4
2018-06-04T05:59:38.030Z,1001.4
2018-06-04T06:00:39.433Z,1001.4
2018-06-04T06:01:40.858Z,1001.4
2018-06-04T06:02:42.245Z,1001.4
2018-06-04T06:03:43.665Z,1001.4
2018-06-04T06:04:45.062Z,1001.4
2018-06-04T06:05:46.460Z,1001.4
2018-06-04T06:06:47.855Z,1001.4
2018-06-04T06:07:49.260Z,1001.4
2018-06-04T06:08:50.658Z,1001.4
2018-06-04T06:09:52.056Z,1001.4
2018-06-04T06:10:53.449Z,1001.3
2018-06-04T06:11:54.849Z,1001.3
2018-06-04T06:12:56.244Z,1001.3
2018-06-04T06:13:57.654Z,1001.3
2018-06-04T06:14:59.054Z,1001.3
2018-06-04T06:16:00.452Z,1001.3
2018-06-04T06:17:01.859Z,1001.3
2018-06-04T06:18:03.260Z,1001.3
2018-06-04T06:19:04.655Z,1001.3
2018-06-04T06:20:06.050Z,1001.2
2018-06-04T06:21:07.483Z,1001.2
2018-06-04T06:22:08.855Z,1001.2
2018-06-04T06:23:10.257Z,1001.2
2018-06-04T06:24:11.648Z,1001.2
2018-06-04T06:25:13.045Z,1001.2
2018-06-04T06:26:14.443Z,1001.2
2018-06-04T06:27:15.843Z,1001.1
2018-06-04T06:28:17.248Z,1001.2
2018-06-04T06:29:18.642Z,1001.2
2018-06-04T06:30:20.056Z,1001.1
2018-06-04T06:31:21.450Z,1001.2
2018-06-04T06:32:22.845Z,1001.2
2018-06-04T06:33:24.244Z,1001.2
2018-06-04T06:34:25.640Z,1001.2
2018-06-04T06:35:27.081Z,1001.2
2018-06-04T06:36:28.608Z,1001.2
2018-06-04T06:37:30.055Z,1001.1
2018-06-04T06:38:31.408Z,1001.2
2018-06-04T06:39:32.805Z,1001.2
2018-06-04T06:40:34.204Z,1001.2
2018-06-04T06:41:35.605Z,1001.2
2018-06-04T06:42:37.006Z,1001.2
2018-06-04T06:43:38.406Z,1001.2
2018-06-04T06:44:39.805Z,1001.1
2018-06-04T06:45:41.205Z,1001.1
2018-06-04T06:46:42.620Z,1001.1
2018-06-04T06:47:44.022Z,1001.1
2018-06-04T06:48:45.418Z,1001.1
2018-06-04T06:49:46.818Z,1001.1
2018-06-04T06:50:48.228Z,1001.2
2018-06-04T06:51:49.630Z,1001.2
2018-06-04T06:52:51.032Z,1001.1
2018-06-04T06:53:52.424Z,1001.2
2018-06-04T06:54:53.823Z,1001.1
2018-06-04T06:55:55.228Z,1001.2
2018-06-04T06:56:56.617Z,1001.2
2018-06-04T06:57:58.033Z,1001.2
2018-06-04T06:58:59.441Z,1001.1
2018-06-04T07:00:00.850Z,1001.1
2018-06-04T07:01:02.258Z,1001.1
2018-06-04T07:02:03.670Z,1001.1
2018-06-04T07:03:05.060Z,1001.1
2018-06-04T07:04:06.464Z,1001.1
2018-06-04T07:05:07.870Z,1001.1
2018-06-04T07:06:09.268Z,1001.2
2018-06-04T07:07:10.669Z,1001.2
2018-06-04T07:08:12.067Z,1001.1
2018-06-04T07:09:13.471Z,1001.1
2018-06-04T07:10:14.870Z,1001.1
2018-06-04T07:11:16.273Z,1001.1
2018-06-04T07:12:17.674Z,1001.2
2018-06-04T07:13:19.074Z,1001.2
2018-06-04T07:14:20.490Z,1001.2
2018-06-04T07:15:21.874Z,1001.2
2018-06-04T07:16:23.276Z,1001.2
2018-06-04T07:17:24.674Z,1001.2
2018-06-04T07:18:26.183Z,1001.2
2018-06-04T07:19:27.593Z,1001.1
2018-06-04T07:20:28.996Z,1001.1
2018-06-04T07:21:30.449Z,1001.1
2018-06-04T07:22:31.799Z,1001.1
2018-06-04T07:23:33.199Z,1001.1
2018-06-04T07:24:34.599Z,1001.1
2018-06-04T07:25:36.004Z,1001.1
2018-06-04T07:26:37.400Z,1001.1
2018-06-04T07:27:38.802Z,1001.1
2018-06-04T07:28:40.205Z,1001.1
2018-06-04T07:29:41.605Z,1001.1
2018-06-04T07:30:43.020Z,1001.1
2018-06-04T07:31:44.420Z,1001.1
2018-06-04T07:32:45.817Z,1001.1
2018-06-04T07:33:47.222Z,1001.1
2018-06-04T07:34:48.629Z,1001.1
2018-06-04T07:35:50.024Z,1001.1
2018-06-04T07:36:51.425Z,1001.1
2018-06-04T07:37:52.821Z,1001.1
2018-06-04T07:38:54.222Z,1001.1
2018-06-04T07:39:55.623Z,1001.1
2018-06-04T07:40:57.028Z,1001.0
2018-06-04T07:41:58.434Z,1001.0
2018-06-04T07:42:59.831Z,1001.1
2018-06-04T07:44:01.231Z,1001.0
2018-06-04T07:45:02.649Z,1001.0
2018-06-04T07:46:04.050Z,1001.0
2018-06-04T07:47:05.449Z,1001.0
2018-06-04T07:48:06.869Z,1001.0
2018-06-04T07:49:08.288Z,1001.0
2018-06-04T07:50:09.689Z,1001.0
2018-06-04T07:51:11.106Z,1001.0
2018-06-04T07:52:12.505Z,1001.0
2018-06-04T07:53:13.912Z,1001.0
2018-06-04T07:54:15.311Z,1001.0
2018-06-04T07:55:16.712Z,1001.0
2018-06-04T07:56:18.116Z,1001.0
2018-06-04T07:57:19.536Z,1001.0
2018-06-04T07:58:20.912Z,1001.0
2018-06-04T07:59:22.417Z,1001.0
2018-06-04T08:00:23.841Z,1001.0
2018-06-04T08:01:25.244Z,1001.0
2018-06-04T08:02:26.645Z,1001.0
2018-06-04T08:03:28.065Z,1000.9
2018-06-04T08:04:29.520Z,1000.9
2018-06-04T08:05:30.870Z,1000.9
2018-06-04T08:06:32.310Z,1000.9
2018-06-04T08:07:33.674Z,1000.9
2018-06-04T08:08:35.077Z,1000.9
2018-06-04T08:09:36.480Z,1001.0
2018-06-04T08:10:37.884Z,1000.9
2018-06-04T08:11:39.284Z,1000.9
2018-06-04T08:12:40.687Z,1000.9
2018-06-04T08:13:42.089Z,1000.9
2018-06-04T08:14:43.489Z,1000.9
2018-06-04T08:15:44.894Z,1000.9
2018-06-04T08:16:46.298Z,1000.9
2018-06-04T08:17:47.695Z,1000.9
2018-06-04T08:18:49.096Z,1000.9
2018-06-04T08:19:50.502Z,1000.9
2018-06-04T08:20:51.899Z,1000.9
2018-06-04T08:21:53.302Z,1000.9
2018-06-04T08:22:54.705Z,1000.8
2018-06-04T08:23:56.138Z,1000.8
2018-06-04T08:24:57.550Z,1000.9
2018-06-04T08:25:58.952Z,1000.8
2018-06-04T08:27:00.350Z,1000.9
2018-06-04T08:28:01.765Z,1000.8
2018-06-04T08:29:03.169Z,1000.9
2018-06-04T08:30:04.571Z,1000.8
2018-06-04T08:31:05.972Z,1000.9
2018-06-04T08:32:07.376Z,1000.9
2018-06-04T08:33:08.775Z,1000.9
2018-06-04T08:34:10.179Z,1000.9
2018-06-04T08:35:11.577Z,1000.9
2018-06-04T08:36:12.985Z,1000.9
2018-06-04T08:37:14.386Z,1000.9
2018-06-04T08:38:15.787Z,1000.9
2018-06-04T08:39:17.205Z,1000.9
2018-06-04T08:40:18.658Z,1000.8
2018-06-04T08:41:20.022Z,1000.8
2018-06-04T08:42:21.424Z,1000.9
2018-06-04T08:43:22.833Z,1000.8
2018-06-04T08:44:24.237Z,1000.8
2018-06-04T08:45:25.639Z,1000.8
2018-06-04T08:46:27.042Z,1000.8
2018-06-04T08:47:28.446Z,1000.7
2018-06-04T08:48:29.844Z,1000.8
2018-06-04T08:49:31.244Z,1000.8
2018-06-04T08:50:32.643Z,1000.7
2018-06-04T08:51:34.044Z,1000.7
2018-06-04T08:52:35.449Z,1000.7
2018-06-04T08:53:36.854Z,1000.8
2018-06-04T08:54:38.256Z,1000.8
2018-06-04T08:55:39.658Z,1000.8
2018-06-04T08:56:41.065Z,1000.8
2018-06-04T08:57:42.477Z,1000.7
2018-06-04T08:58:43.880Z,1000.7
2018-06-04T08:59:45.283Z,1000.8
2018-06-04T09:00:46.687Z,1000.7
2018-06-04T09:01:48.085Z,1000.7
2018-06-04T09:02:49.494Z,1000.7
2018-06-04T09:03:50.892Z,1000.8
2018-06-04T09:04:52.302Z,1000.7
2018-06-04T09:05:53.718Z,1000.7
2018-06-04T09:06:55.122Z,1000.7
2018-06-04T09:07:56.538Z,1000.8
2018-06-04T09:08:57.955Z,1000.8
2018-06-04T09:09:59.364Z,1000.8
2018-06-04T09:11:00.778Z,1000.8
2018-06-04T09:12:02.186Z,1000.7
2018-06-04T09:13:03.582Z,1000.8
2018-06-04T09:14:04.988Z,1000.7
2018-06-04T09:15:06.397Z,1000.7
2018-06-04T09:16:07.829Z,1000.7
2018-06-04T09:17:09.229Z,1000.7
2018-06-04T09:18:10.634Z,1000.7
2018-06-04T09:19:12.032Z,1000.7
2018-06-04T09:20:13.511Z,1000.7
2018-06-04T09:21:14.958Z,1000.7
2018-06-04T09:22:16.363Z,1000.7
2018-06-04T09:23:17.764Z,1000.8
2018-06-04T09:24:19.191Z,1000.7
2018-06-04T09:25:20.590Z,1000.7
2018-06-04T09:26:21.992Z,1000.7
2018-06-04T09:27:23.392Z,1000.7
2018-06-04T09:28:24.795Z,1000.8
2018-06-04T09:29:26.202Z,1000.8
2018-06-04T09:30:27.606Z,1000.7
2018-06-04T09:31:29.005Z,1000.7
2018-06-04T09:32:30.407Z,1000.7
2018-06-04T09:33:31.836Z,1000.7
2018-06-04T09:34:33.239Z,1000.7
2018-06-04T09:35:34.644Z,1000.7
2018-06-04T09:36:36.062Z,1000.7
2018-06-04T09:37:37.507Z,1000.7
2018-06-04T09:38:38.867Z,1000.7
2018-06-04T09:39:40.275Z,1000.8
2018-06-04T09:40:41.672Z,1000.7
2018-06-04T09:41:43.078Z,1000.7
2018-06-04T09:42:44.480Z,1000.7
2018-06-04T09:43:45.881Z,1000.7
2018-06-04T09:44:47.299Z,1000.7
2018-06-04T09:45:48.703Z,1000.7
2018-06-04T09:46:50.101Z,1000.7
2018-06-04T09:47:51.519Z,1000.7
2018-06-04T09:48:52.922Z,1000.7
2018-06-04T09:49:54.324Z,1000.7
2018-06-04T09:50:55.728Z,1000.7
2018-06-04T09:51:57.131Z,1000.7
2018-06-04T09:52:58.532Z,1000.7
2018-06-04T09:54:00.009Z,1000.7
2018-06-04T09:55:01.338Z,1000.7
2018-06-04T09:56:02.743Z,1000.6
2018-06-04T09:57:04.148Z,1000.7
2018-06-04T09:58:05.552Z,1000.7
2018-06-04T09:59:06.954Z,1000.7
2018-06-04T10:00:08.359Z,1000.7
2018-06-04T10:01:09.758Z,1000.7
2018-06-04T10:02:11.230Z,1000.7
2018-06-04T10:03:12.672Z,1000.7
2018-06-04T10:04:14.076Z,1000.7
2018-06-04T10:05:15.483Z,1000.6
2018-06-04T10:06:16.881Z,1000.7
2018-06-04T10:07:18.285Z,1000.6
2018-06-04T10:08:19.690Z,1000.6
2018-06-04T10:09:21.112Z,1000.6
2018-06-04T10:10:22.515Z,1000.6
2018-06-04T10:11:23.921Z,1000.6
2018-06-04T10:12:25.330Z,1000.6
2018-06-04T10:13:26.732Z,1000.6
2018-06-04T10:14:28.143Z,1000.6
2018-06-04T10:15:29.544Z,1000.5
2018-06-04T10:16:30.948Z,1000.5
2018-06-04T10:17:32.354Z,1000.6
2018-06-04T10:18:33.757Z,1000.6
2018-06-04T10:19:35.160Z,1000.5
2018-06-04T10:20:36.563Z,1000.5
2018-06-04T10:21:37.981Z,1000.6
2018-06-04T10:22:39.390Z,1000.5
2018-06-04T10:23:40.793Z,1000.5
2018-06-04T10:24:42.195Z,1000.5
2018-06-04T10:25:43.603Z,1000.5
2018-06-04T10:26:45.017Z,1000.6
2018-06-04T10:27:46.419Z,1000.6
2018-06-04T10:28:47.837Z,1000.5
2018-06-04T10:29:49.239Z,1000.5
2018-06-04T10:30:50.652Z,1000.5
2018-06-04T10:31:52.051Z,1000.5
2018-06-04T10:32:53.454Z,1000.5
2018-06-04T10:33:54.865Z,1000.5
2018-06-04T10:34:56.269Z,1000.5
2018-06-04T10:35:57.678Z,1000.5
2018-06-04T10:36:59.084Z,1000.5
2018-06-04T10:38:00.515Z,1000.5
2018-06-04T10:39:01.900Z,1000.5
2018-06-04T10:40:03.302Z,1000.5
2018-06-04T10:41:04.711Z,1000.4
2018-06-04T10:42:06.115Z,1000.5
2018-06-04T10:43:07.610Z,1000.5
2018-06-04T10:44:09.070Z,1000.5
2018-06-04T10:45:10.485Z,1000.5
2018-06-04T10:46:11.890Z,1000.5
2018-06-04T10:47:13.317Z,1000.5
2018-06-04T10:48:14.724Z,1000.4
2018-06-04T10:49:16.137Z,1000.4
2018-06-04T10:50:17.570Z,1000.4
2018-06-04T10:51:18.976Z,1000.4
2018-06-04T10:52:20.385Z,1000.4
2018-06-04T10:53:21.789Z,1000.4
2018-06-04T10:54:23.199Z,1000.4
2018-06-04T10:55:24.604Z,1000.4
2018-06-04T10:56:26.009Z,1000.4
2018-06-04T10:57:27.448Z,1000.4
2018-06-04T10:58:28.819Z,1000.4
2018-06-04T10:59:30.228Z,1000.4
2018-06-04T11:00:31.637Z,1000.4
2018-06-04T11:01:33.046Z,1000.4
2018-06-04T11:02:34.451Z,1000.5
2018-06-04T11:03:35.855Z,1000.4
2018-06-04T11:04:37.262Z,1000.5
2018-06-04T11:05:38.667Z,1000.5
2018-06-04T11:06:40.076Z,1000.4
2018-06-04T11:07:41.485Z,1000.4
2018-06-04T11:08:42.890Z,1000.4
2018-06-04T11:09:44.298Z,1000.4
2018-06-04T11:10:45.704Z,1000.4
2018-06-04T11:11:47.111Z,1000.4
2018-06-04T11:12:48.520Z,1000.4
2018-06-04T11:13:49.922Z,1000.4
2018-06-04T11:14:51.353Z,1000.4
2018-06-04T11:15:52.762Z,1000.4
2018-06-04T11:16:54.167Z,1000.4
2018-06-04T11:17:55.574Z,1000.4
2018-06-04T11:18:57.037Z,1000.3
2018-06-04T11:19:58.389Z,1000.3
2018-06-04T11:20:59.797Z,1000.3
2018-06-04T11:22:01.211Z,1000.3
2018-06-04T11:23:02.636Z,1000.3
2018-06-04T11:24:04.048Z,1000.2
2018-06-04T11:25:05.560Z,1000.2
2018-06-04T11:26:06.979Z,1000.2
2018-06-04T11:27:08.389Z,1000.2
2018-06-04T11:28:09.811Z,1000.2
2018-06-04T11:29:11.225Z,1000.1
2018-06-04T11:30:12.635Z,1000.1
2018-06-04T11:31:14.047Z,1000.2
2018-06-04T11:32:15.458Z,1000.2
2018-06-04T11:33:16.866Z,1000.1
2018-06-04T11:34:18.272Z,1000.2
2018-06-04T11:35:19.680Z,1000.2
2018-06-04T11:36:21.098Z,1000.2
2018-06-04T11:37:22.514Z,1000.2
2018-06-04T11:38:23.922Z,1000.2
2018-06-04T11:39:25.335Z,1000.2
2018-06-04T11:40:26.740Z,1000.2
2018-06-04T11:41:28.152Z,1000.2
2018-06-04T11:42:29.556Z,1000.2
2018-06-04T11:43:30.967Z,1000.2
2018-06-04T11:44:32.376Z,1000.2
2018-06-04T11:45:33.787Z,1000.2
2018-06-04T11:46:35.195Z,1000.1
2018-06-04T11:47:36.607Z,1000.1
2018-06-04T11:48:38.015Z,1000.1
2018-06-04T11:49:39.425Z,1000.1
2018-06-04T11:50:40.834Z,1000.0
2018-06-04T11:51:42.251Z,1000.1
2018-06-04T11:52:43.685Z,1000.1
2018-06-04T11:53:45.087Z,1000.1
2018-06-04T11:54:46.501Z,1000.1
2018-06-04T11:55:47.902Z,1000.1
2018-06-04T11:56:49.342Z,1000.1
2018-06-04T11:57:50.723Z,1000.1
2018-06-04T11:58:52.131Z,1000.1
2018-06-04T11:59:53.545Z,1000.1
2018-06-04T12:00:54.953Z,1000.1
2018-06-04T12:01:56.370Z,1000.0
2018-06-04T12:02:57.791Z,1000.0
2018-06-04T12:03:59.202Z,1000.0
2018-06-04T12:05:00.609Z,1000.0
2018-06-04T12:06:02.020Z,1000.0
2018-06-04T12:07:03.430Z,1000.0
2018-06-04T12:08:04.989Z,1000.0
2018-06-04T12:09:06.404Z,1000.0
2018-06-04T12:10:07.813Z,1000.0
2018-06-04T12:11:09.224Z,999.9
2018-06-04T12:12:10.630Z,999.9
2018-06-04T12:13:12.040Z,999.9
2018-06-04T12:14:13.452Z,999.9
2018-06-04T12:15:14.852Z,999.9
2018-06-04T12:16:16.262Z,999.8
2018-06-04T12:17:17.664Z,999.9
2018-06-04T12:18:19.070Z,999.9
2018-06-04T12:19:20.480Z,999.9
2018-06-04T12:20:21.891Z,999.9
2018-06-04T12:21:23.293Z,999.9
2018-06-04T12:22:24.700Z,1000.0
2018-06-04T12:23:26.116Z,1000.0
2018-06-04T12:24:27.524Z,1000.0
2018-06-04T12:25:28.936Z,1000.0
2018-06-04T12:26:30.353Z,1000.0
2018-06-04T12:27:31.763Z,1000.0
2018-06-04T12:28:33.176Z,1000.0
2018-06-04T12:29:34.591Z,1000.0
2018-06-04T12:30:35.999Z,999.9
2018-06-04T12:31:37.419Z,999.9
2018-06-04T12:32:38.842Z,999.9
2018-06-04T12:33:40.252Z,999.9
2018-06-04T12:34:41.664Z,999.9
2018-06-04T12:35:43.076Z,999.9
2018-06-04T12:36:44.485Z,1000.0
2018-06-04T12:37:45.893Z,999.9
2018-06-04T12:38:47.301Z,999.9
2018-06-04T12:39:48.711Z,999.8
2018-06-04T12:40:50.119Z,999.7
2018-06-04T12:41:51.530Z,999.7
2018-06-04T12:42:52.935Z,999.7
2018-06-04T12:43:54.339Z,999.7
2018-06-04T12:44:55.742Z,999.7
2018-06-04T12:45:57.150Z,999.6
2018-06-04T12:46:58.558Z,999.4